Time;durP1;ratioP1;P1;durP2;ratioP2;P2;SDS_P1;SDS_P2;PMS_P1;PMS_P2;Temp;Humidity;BMP_temperature;BMP_pressure;BME280_temperature;BME280_humidity;BME280_pressure;Samples;Min_cycle;Max_cycle;Signal;HPM_P1;HPM_P2
2022/12/25 00:01:11;;;;;;;;;;;;;;;;;;5112878;28;887;-71
2022/12/25 00:03:37;;;;;;;;;;;;;;;;;;5112189;28;824;-71
2022/12/25 00:06:03;;;;;;;;;;;;;;;;;;5112511;28;1949;-71
2022/12/25 00:08:28;;;;;;;;;;;;;;;;;;5112509;28;1251;-71
2022/12/25 00:11:00;;;;;;;;;;;;;;;;;;5113017;28;813;-71
2022/12/25 00:13:25;;;;;;;;;;;;;;;;;;5112106;28;1384;-71
2022/12/25 00:15:51;;;;;;;;;;;;;;;;;;5111286;28;1038;-71
2022/12/25 00:18:16;;;;;;;;;;;;;;;;;;5113186;28;883;-71
2022/12/25 00:20:41;;;;;;;;;;;;;;;;;;5112540;28;820;-71
2022/12/25 00:23:06;;;;;;;;;;;;;;;;;;5112520;28;1018;-71
2022/12/25 00:25:32;;;;;;;;;;;;;;;;;;5111957;28;1914;-71
2022/12/25 00:27:57;;;;;;;;;;;;;;;;;;5112643;28;895;-71
2022/12/25 00:30:22;;;;;;;;;;;;;;;;;;5110958;28;907;-71
2022/12/25 00:32:47;;;;;;;;;;;;;;;;;;5113164;27;938;-72
2022/12/25 00:35:13;;;;;;;;;;;;;;;;;;5113567;28;860;-71
2022/12/25 00:37:38;;;;;;;;;;;;;;;;;;5112978;28;907;-71
2022/12/25 00:40:03;;;;;;;;;;;;;;;;;;5113912;28;1030;-71
2022/12/25 00:42:29;;;;;;;;;;;;;;;;;;5113253;28;903;-71
2022/12/25 00:44:54;;;;;;;;;;;;;;;;;;5111234;28;1438;-71
2022/12/25 00:47:19;;;;;;;;;;;;;;;;;;5111304;28;1905;-71
2022/12/25 00:49:45;;;;;;;;;;;;;;;;;;5112284;28;931;-71
2022/12/25 00:52:10;;;;;;;;;;;;;;;;;;5112675;28;942;-72
2022/12/25 00:54:36;;;;;;;;;;;;;;;;;;5111933;28;860;-71
2022/12/25 00:57:02;;;;;;;;;;;;;;;;;;5112356;28;994;-71
2022/12/25 00:59:32;;;;;;;;;;;;;;;;;;5111722;28;899;-71
2022/12/25 01:02:21;;;;;;;;;;;;;;;;;;5093854;28;1221;-71
2022/12/25 01:04:42;;;;;;;;;;;;;;;;;;5101492;28;1547;-71
2022/12/25 01:07:08;;;;;;;;;;;;;;;;;;5085339;28;1930;-71
2022/12/25 01:12:17;;;;;;;;;;;;;;;;;;5089610;28;1007;-71
2022/12/25 01:14:42;;;;;;;;;;;;;;;;;;5101271;28;1195;-71
2022/12/25 01:17:07;;;;;;;;;;;;;;;;;;5109376;28;1222;-71
2022/12/25 01:19:33;;;;;;;;;;;;;;;;;;5105692;28;1171;-71
2022/12/25 01:21:58;;;;;;;;;;;;;;;;;;5093616;28;1214;-71
2022/12/25 01:24:23;;;;;;;;;;;;;;;;;;5096768;28;1143;-71
2022/12/25 01:26:48;;;;;;;;;;;;;;;;;;5101094;28;1925;-71
2022/12/25 01:29:14;;;;;;;;;;;;;;;;;;5101390;28;1150;-71
2022/12/25 01:31:39;;;;;;;;;;;;;;;;;;5098234;28;1164;-71
2022/12/25 01:34:04;;;;;;;;;;;;;;;;;;5098132;28;1159;-71
2022/12/25 01:36:29;;;;;;;;;;;;;;;;;;5095323;28;1175;-71
2022/12/25 01:38:55;;;;;;;;;;;;;;;;;;5098011;28;1175;-71
2022/12/25 01:41:22;;;;;;;;;;;;;;;;;;5090130;28;1198;-71
2022/12/25 01:43:58;;;;;;;;;;;;;;;;;;5106102;28;1119;-71
2022/12/25 01:46:24;;;;;;;;;;;;;;;;;;5102626;28;1947;-71
2022/12/25 01:48:49;;;;;;;;;;;;;;;;;;5103254;28;1079;-71
2022/12/25 01:51:21;;;;;;;;;;;;;;;;;;5092816;28;1199;-71
2022/12/25 01:53:46;;;;;;;;;;;;;;;;;;5092236;28;1144;-71
2022/12/25 01:56:11;;;;;;;;;;;;;;;;;;5101715;28;1254;-71
2022/12/25 01:58:37;;;;;;;;;;;;;;;;;;5101666;28;1187;-71
2022/12/25 02:01:02;;;;;;;;;;;;;;;;;;5094545;28;1144;-71
2022/12/25 02:03:27;;;;;;;;;;;;;;;;;;5110377;28;1317;-71
2022/12/25 02:05:52;;;;;;;;;;;;;;;;;;5110790;28;1898;-71
2022/12/25 02:08:19;;;;;;;;;;;;;;;;;;5109755;28;1222;-71
2022/12/25 02:10:45;;;;;;;;;;;;;;;;;;5110400;28;943;-72
2022/12/25 02:13:14;;;;;;;;;;;;;;;;;;5110874;28;895;-71
2022/12/25 02:16:06;;;;;;;;;;;;;;;;;;5110302;28;974;-72
2022/12/25 02:18:34;;;;;;;;;;;;;;;;;;5107922;28;1383;-72
2022/12/25 02:21:03;;;;;;;;;;;;;;;;;;5111184;28;840;-71
2022/12/25 02:23:41;;;;;;;;;;;;;;;;;;5110421;28;898;-71
2022/12/25 02:26:14;;;;;;;;;;;;;;;;;;5110386;28;1972;-71
2022/12/25 02:28:55;;;;;;;;;;;;;;;;;;5110279;28;864;-71
2022/12/25 02:31:23;;;;;;;;;;;;;;;;;;5110896;28;899;-71
2022/12/25 02:34:02;;;;;;;;;;;;;;;;;;5111180;28;899;-71
2022/12/25 02:36:41;;;;;;;;;;;;;;;;;;5110248;28;957;-71
2022/12/25 02:41:58;;;;;;;;;;;;;;;;;;5111490;28;630;-71
2022/12/25 03:06:42;;;;;;;;;;;;;;;;;;5113855;28;1902;-71
2022/12/25 03:12:44;;;;;;;;;;;;;;;;;;5114540;28;716;-71
2022/12/25 03:17:54;;;;;;;;;;;;;;;;;;5114647;28;650;-71
2022/12/25 03:28:31;;;;;;;;;;;;;;;;;;5113454;28;670;-71
2022/12/25 03:31:12;;;;;;;;;;;;;;;;;;5112864;28;1083;-71
2022/12/25 03:33:37;;;;;;;;;;;;;;;;;;5113769;28;981;-71
2022/12/25 03:36:19;;;;;;;;;;;;;;;;;;5114266;28;971;-71
2022/12/25 04:36:39;;;;;;;;;;;;;;;;;;5112593;28;717;-71
2022/12/25 04:39:05;;;;;;;;;;;;;;;;;;5113019;28;895;-71
2022/12/25 04:41:30;;;;;;;;;;;;;;;;;;5111876;28;580;-71
2022/12/25 04:43:55;;;;;;;;;;;;;;;;;;5112827;28;824;-71
2022/12/25 04:46:21;;;;;;;;;;;;;;;;;;5112411;28;1969;-71
2022/12/25 04:48:46;;;;;;;;;;;;;;;;;;5112731;28;848;-71
2022/12/25 04:51:16;;;;;;;;;;;;;;;;;;5112820;28;878;-71
2022/12/25 04:53:43;;;;;;;;;;;;;;;;;;5110688;28;1170;-71
2022/12/25 04:56:08;;;;;;;;;;;;;;;;;;5112632;28;943;-71
2022/12/25 04:58:34;;;;;;;;;;;;;;;;;;5111352;28;1009;-71
2022/12/25 05:01:00;;;;;;;;;;;;;;;;;;5112157;28;859;-71
2022/12/25 05:03:25;;;;;;;;;;;;;;;;;;5112401;28;824;-71
2022/12/25 05:05:50;;;;;;;;;;;;;;;;;;5110018;28;1894;-71
2022/12/25 05:08:16;;;;;;;;;;;;;;;;;;5112162;28;1033;-71
2022/12/25 05:10:41;;;;;;;;;;;;;;;;;;5111394;28;895;-71
2022/12/25 05:13:06;;;;;;;;;;;;;;;;;;5113205;28;947;-71
2022/12/25 05:15:31;;;;;;;;;;;;;;;;;;5110933;28;1972;-71
2022/12/25 05:17:57;;;;;;;;;;;;;;;;;;5112920;28;891;-71
2022/12/25 05:20:22;;;;;;;;;;;;;;;;;;5112878;28;962;-71
2022/12/25 05:22:47;;;;;;;;;;;;;;;;;;5112316;28;855;-71
2022/12/25 05:25:13;;;;;;;;;;;;;;;;;;5112733;28;911;-71
2022/12/25 05:27:38;;;;;;;;;;;;;;;;;;5112320;28;1913;-72
2022/12/25 05:30:03;;;;;;;;;;;;;;;;;;5111247;28;911;-72
2022/12/25 05:32:28;;;;;;;;;;;;;;;;;;5111781;28;871;-71
2022/12/25 05:34:54;;;;;;;;;;;;;;;;;;5111236;28;903;-71
2022/12/25 05:37:19;;;;;;;;;;;;;;;;;;5111735;28;820;-71
2022/12/25 05:39:44;;;;;;;;;;;;;;;;;;5111051;28;820;-71
2022/12/25 05:42:10;;;;;;;;;;;;;;;;;;5110001;28;1288;-71
2022/12/25 05:44:35;;;;;;;;;;;;;;;;;;5110858;28;909;-71
2022/12/25 05:47:00;;;;;;;;;;;;;;;;;;5111469;28;2009;-71
2022/12/25 05:49:25;;;;;;;;;;;;;;;;;;5109741;28;1201;-71
2022/12/25 05:51:51;;;;;;;;;;;;;;;;;;5111031;28;887;-71
2022/12/25 05:54:16;;;;;;;;;;;;;;;;;;5093287;28;1388;-71
2022/12/25 05:56:41;;;;;;;;;;;;;;;;;;5110532;28;903;-71
2022/12/25 05:59:07;;;;;;;;;;;;;;;;;;5110916;28;832;-71
2022/12/25 06:01:32;;;;;;;;;;;;;;;;;;5110053;28;1212;-71
2022/12/25 06:03:57;;;;;;;;;;;;;;;;;;5109756;28;897;-71
2022/12/25 06:06:22;;;;;;;;;;;;;;;;;;5110040;28;1967;-71
2022/12/25 06:08:48;;;;;;;;;;;;;;;;;;5110469;28;1230;-71
2022/12/25 06:11:14;;;;;;;;;;;;;;;;;;5111145;28;835;-72
2022/12/25 06:13:39;;;;;;;;;;;;;;;;;;5110392;28;872;-71
2022/12/25 06:16:05;;;;;;;;;;;;;;;;;;5109667;28;824;-71
2022/12/25 06:18:33;;;;;;;;;;;;;;;;;;5110221;28;924;-71
2022/12/25 06:20:58;;;;;;;;;;;;;;;;;;5111001;28;928;-71
2022/12/25 06:23:23;;;;;;;;;;;;;;;;;;5110784;28;875;-71
2022/12/25 06:25:48;;;;;;;;;;;;;;;;;;5109872;28;1906;-71
2022/12/25 06:28:14;;;;;;;;;;;;;;;;;;5110469;28;857;-71
2022/12/25 06:30:39;;;;;;;;;;;;;;;;;;5110312;28;793;-71
2022/12/25 06:33:04;;;;;;;;;;;;;;;;;;5110882;28;840;-71
2022/12/25 06:35:29;;;;;;;;;;;;;;;;;;5108399;28;952;-71
2022/12/25 06:37:55;;;;;;;;;;;;;;;;;;5096468;28;1207;-71
2022/12/25 06:40:20;;;;;;;;;;;;;;;;;;5102263;28;1199;-71
2022/12/25 06:42:46;;;;;;;;;;;;;;;;;;5093308;28;1160;-71
2022/12/25 06:45:11;;;;;;;;;;;;;;;;;;5091153;28;1033;-71
2022/12/25 06:47:37;;;;;;;;;;;;;;;;;;5093375;28;1975;-71
2022/12/25 06:50:02;;;;;;;;;;;;;;;;;;5091546;28;1203;-71
2022/12/25 06:52:30;;;;;;;;;;;;;;;;;;5088143;28;1139;-71
2022/12/25 06:54:55;;;;;;;;;;;;;;;;;;5093732;28;1131;-71
2022/12/25 06:57:20;;;;;;;;;;;;;;;;;;5097856;28;1205;-71
2022/12/25 06:59:46;;;;;;;;;;;;;;;;;;5092951;28;1115;-71
2022/12/25 07:02:15;;;;;;;;;;;;;;;;;;5090221;28;903;-71
2022/12/25 07:04:41;;;;;;;;;;;;;;;;;;5089807;28;920;-71
2022/12/25 07:07:07;;;;;;;;;;;;;;;;;;5089923;28;1964;-71
2022/12/25 07:09:32;;;;;;;;;;;;;;;;;;5088653;28;1183;-71
2022/12/25 07:12:05;;;;;;;;;;;;;;;;;;5089935;28;762;-71
2022/12/25 07:14:30;;;;;;;;;;;;;;;;;;5088744;28;853;-71
2022/12/25 07:16:55;;;;;;;;;;;;;;;;;;5089459;28;998;-71
2022/12/25 07:19:21;;;;;;;;;;;;;;;;;;5088290;28;1313;-71
2022/12/25 07:21:46;;;;;;;;;;;;;;;;;;5087647;28;1658;-71
2022/12/25 07:24:16;;;;;;;;;;;;;;;;;;5090155;28;923;-71
2022/12/25 07:26:41;;;;;;;;;;;;;;;;;;5086275;28;1983;-71
2022/12/25 07:29:06;;;;;;;;;;;;;;;;;;5088030;28;962;-71
2022/12/25 07:31:32;;;;;;;;;;;;;;;;;;5088670;28;919;-72
2022/12/25 07:33:57;;;;;;;;;;;;;;;;;;5088091;28;706;-72
2022/12/25 07:36:22;;;;;;;;;;;;;;;;;;5089058;28;896;-72
2022/12/25 07:38:48;;;;;;;;;;;;;;;;;;5087516;28;655;-72
2022/12/25 07:41:13;;;;;;;;;;;;;;;;;;5089445;28;864;-72
2022/12/25 07:43:39;;;;;;;;;;;;;;;;;;5089343;28;860;-72
2022/12/25 07:46:04;;;;;;;;;;;;;;;;;;5092028;28;1953;-72
2022/12/25 07:48:30;;;;;;;;;;;;;;;;;;5093424;28;873;-72
2022/12/25 07:50:56;;;;;;;;;;;;;;;;;;5093119;28;979;-71
2022/12/25 07:53:21;;;;;;;;;;;;;;;;;;5093535;28;828;-73
2022/12/25 07:55:46;;;;;;;;;;;;;;;;;;5092940;28;979;-72
2022/12/25 07:58:12;;;;;;;;;;;;;;;;;;5093313;28;976;-72
2022/12/25 08:00:37;;;;;;;;;;;;;;;;;;5090566;28;1347;-72
2022/12/25 08:03:03;;;;;;;;;;;;;;;;;;5092371;28;896;-72
2022/12/25 08:05:28;;;;;;;;;;;;;;;;;;5092412;28;868;-72
2022/12/25 08:07:54;;;;;;;;;;;;;;;;;;5091221;28;1968;-73
2022/12/25 08:10:19;;;;;;;;;;;;;;;;;;5091986;28;896;-72
2022/12/25 08:12:45;;;;;;;;;;;;;;;;;;5093065;28;821;-72
2022/12/25 08:15:10;;;;;;;;;;;;;;;;;;5091957;28;904;-72
2022/12/25 08:17:35;;;;;;;;;;;;;;;;;;5092637;28;832;-72
2022/12/25 08:20:00;;;;;;;;;;;;;;;;;;5092524;28;927;-72
2022/12/25 08:22:26;;;;;;;;;;;;;;;;;;5091036;28;935;-72
2022/12/25 08:24:51;;;;;;;;;;;;;;;;;;5091636;28;939;-72
2022/12/25 08:27:16;;;;;;;;;;;;;;;;;;5092486;28;1902;-70
2022/12/25 08:29:42;;;;;;;;;;;;;;;;;;5092005;28;833;-71
2022/12/25 08:32:08;;;;;;;;;;;;;;;;;;5091361;28;916;-71
2022/12/25 08:34:33;;;;;;;;;;;;;;;;;;5090560;28;1311;-71
2022/12/25 08:36:58;;;;;;;;;;;;;;;;;;5092628;28;778;-71
2022/12/25 08:39:24;;;;;;;;;;;;;;;;;;5091126;28;1100;-71
2022/12/25 08:41:49;;;;;;;;;;;;;;;;;;5091265;28;864;-71
2022/12/25 08:44:14;;;;;;;;;;;;;;;;;;5092123;28;908;-70
2022/12/25 08:46:39;;;;;;;;;;;;;;;;;;5090598;28;1894;-71
2022/12/25 08:49:05;;;;;;;;;;;;;;;;;;5092615;28;844;-71
2022/12/25 08:51:30;;;;;;;;;;;;;;;;;;5091496;28;831;-70
2022/12/25 08:53:58;;;;;;;;;;;;;;;;;;5090533;28;745;-70
2022/12/25 08:56:23;;;;;;;;;;;;;;;;;;5092271;28;829;-71
2022/12/25 08:58:48;;;;;;;;;;;;;;;;;;5090105;28;1014;-71
2022/12/25 09:01:13;;;;;;;;;;;;;;;;;;5092240;28;844;-71
2022/12/25 09:03:39;;;;;;;;;;;;;;;;;;5091692;28;907;-71
2022/12/25 09:06:06;;;;;;;;;;;;;;;;;;5090299;28;1897;-70
2022/12/25 09:08:31;;;;;;;;;;;;;;;;;;5091269;28;1061;-71
2022/12/25 09:11:00;;;;;;;;;;;;;;;;;;5089859;28;1340;-71
2022/12/25 09:13:26;;;;;;;;;;;;;;;;;;5091987;28;904;-71
2022/12/25 09:15:51;;;;;;;;;;;;;;;;;;5091431;28;899;-70
2022/12/25 09:18:16;;;;;;;;;;;;;;;;;;5091652;28;950;-71
2022/12/25 09:20:41;;;;;;;;;;;;;;;;;;5091107;28;900;-69
2022/12/25 09:23:07;;;;;;;;;;;;;;;;;;5091252;28;821;-71
2022/12/25 09:25:32;;;;;;;;;;;;;;;;;;5090456;28;927;-69
2022/12/25 09:27:57;;;;;;;;;;;;;;;;;;5090051;28;1972;-69
2022/12/25 09:30:23;;;;;;;;;;;;;;;;;;5091054;28;819;-70
2022/12/25 09:32:48;;;;;;;;;;;;;;;;;;5089195;28;1034;-71
2022/12/25 09:35:16;;;;;;;;;;;;;;;;;;5091050;28;829;-70
2022/12/25 09:37:41;;;;;;;;;;;;;;;;;;5090406;28;1265;-70
2022/12/25 09:40:07;;;;;;;;;;;;;;;;;;5092002;28;947;-70
2022/12/25 09:42:35;;;;;;;;;;;;;;;;;;5091729;28;990;-70
2022/12/25 09:45:03;;;;;;;;;;;;;;;;;;5090323;28;1415;-70
2022/12/25 09:47:30;;;;;;;;;;;;;;;;;;5090806;28;1901;-70
2022/12/25 09:49:58;;;;;;;;;;;;;;;;;;5088698;28;1143;-69
2022/12/25 09:52:45;;;;;;;;;;;;;;;;;;5091228;28;864;-69
2022/12/25 09:55:11;;;;;;;;;;;;;;;;;;5089280;28;1212;-68
2022/12/25 09:57:38;;;;;;;;;;;;;;;;;;5088737;28;1195;-69
2022/12/25 10:00:03;;;;;;;;;;;;;;;;;;5090519;28;884;-71
2022/12/25 10:02:32;;;;;;;;;;;;;;;;;;5090487;28;903;-69
2022/12/25 10:05:14;;;;;;;;;;;;;;;;;;5090280;28;832;-69
2022/12/25 10:07:59;;;;;;;;;;;;;;;;;;5088449;28;1882;-69
2022/12/25 10:10:42;;;;;;;;;;;;;;;;;;5090302;28;840;-69
2022/12/25 10:13:35;;;;;;;;;;;;;;;;;;5088660;28;2342;-71
2022/12/25 10:16:19;;;;;;;;;;;;;;;;;;5090388;28;931;-70
2022/12/25 10:18:52;;;;;;;;;;;;;;;;;;5090121;28;829;-69
2022/12/25 10:21:17;;;;;;;;;;;;;;;;;;5090434;28;1039;-69
2022/12/25 10:23:48;;;;;;;;;;;;;;;;;;5089453;28;837;-69
2022/12/25 10:26:21;;;;;;;;;;;;;;;;;;5090463;28;1975;-71
2022/12/25 10:28:50;;;;;;;;;;;;;;;;;;5090188;28;856;-69
2022/12/25 10:31:15;;;;;;;;;;;;;;;;;;5089236;28;892;-69
2022/12/25 10:33:40;;;;;;;;;;;;;;;;;;5090012;28;899;-69
2022/12/25 10:36:08;;;;;;;;;;;;;;;;;;5089934;28;845;-70
2022/12/25 10:38:35;;;;;;;;;;;;;;;;;;5089597;28;855;-69
2022/12/25 10:41:18;;;;;;;;;;;;;;;;;;5089906;28;836;-70
2022/12/25 10:43:54;;;;;;;;;;;;;;;;;;5089922;28;840;-69
2022/12/25 10:46:20;;;;;;;;;;;;;;;;;;5090202;28;1961;-69
2022/12/25 10:48:50;;;;;;;;;;;;;;;;;;5089755;28;935;-69
2022/12/25 10:51:29;;;;;;;;;;;;;;;;;;5090690;28;769;-69
2022/12/25 10:53:55;;;;;;;;;;;;;;;;;;5089410;28;880;-69
2022/12/25 10:56:21;;;;;;;;;;;;;;;;;;5089911;28;1159;-69
2022/12/25 10:58:46;;;;;;;;;;;;;;;;;;5087809;28;1110;-69
2022/12/25 11:01:12;;;;;;;;;;;;;;;;;;5090048;28;911;-69
2022/12/25 11:03:39;;;;;;;;;;;;;;;;;;5089310;28;1096;-69
2022/12/25 11:06:06;;;;;;;;;;;;;;;;;;5089399;28;1976;-71
2022/12/25 11:08:33;;;;;;;;;;;;;;;;;;5089707;28;1131;-72
2022/12/25 11:11:04;;;;;;;;;;;;;;;;;;5087941;28;1175;-71
2022/12/25 11:13:31;;;;;;;;;;;;;;;;;;5089728;28;805;-71
2022/12/25 11:16:02;;;;;;;;;;;;;;;;;;5090184;28;946;-71
2022/12/25 11:18:42;;;;;;;;;;;;;;;;;;5091140;28;770;-71
2022/12/25 11:21:16;;;;;;;;;;;;;;;;;;5093022;28;832;-72
2022/12/25 11:23:48;;;;;;;;;;;;;;;;;;5093954;28;927;-72
2022/12/25 11:26:14;;;;;;;;;;;;;;;;;;5093886;28;1973;-72
2022/12/25 11:28:40;;;;;;;;;;;;;;;;;;5092806;28;809;-72
2022/12/25 11:31:18;;;;;;;;;;;;;;;;;;5093403;28;998;-71
2022/12/25 11:34:04;;;;;;;;;;;;;;;;;;5092684;28;812;-72
2022/12/25 11:36:48;;;;;;;;;;;;;;;;;;5085308;28;1703;-72
2022/12/25 11:39:19;;;;;;;;;;;;;;;;;;5093225;28;849;-72
2022/12/25 11:41:45;;;;;;;;;;;;;;;;;;5092520;28;903;-72
2022/12/25 11:44:33;;;;;;;;;;;;;;;;;;5092901;28;888;-72
2022/12/25 11:47:02;;;;;;;;;;;;;;;;;;5090748;28;1960;-72
2022/12/25 11:49:28;;;;;;;;;;;;;;;;;;5093473;28;911;-72
2022/12/25 11:51:54;;;;;;;;;;;;;;;;;;5091396;28;888;-72
2022/12/25 11:54:19;;;;;;;;;;;;;;;;;;5093301;28;892;-71
2022/12/25 11:56:45;;;;;;;;;;;;;;;;;;5092725;28;797;-70
2022/12/25 11:59:13;;;;;;;;;;;;;;;;;;5093113;28;872;-70
2022/12/25 12:01:41;;;;;;;;;;;;;;;;;;5092215;28;858;-70
2022/12/25 12:04:12;;;;;;;;;;;;;;;;;;5092874;28;859;-70
2022/12/25 12:06:46;;;;;;;;;;;;;;;;;;5092355;28;1902;-70
2022/12/25 12:09:17;;;;;;;;;;;;;;;;;;5092716;28;1092;-70
2022/12/25 12:11:46;;;;;;;;;;;;;;;;;;5090822;28;1284;-70
2022/12/25 12:14:14;;;;;;;;;;;;;;;;;;5092504;28;900;-70
2022/12/25 12:16:40;;;;;;;;;;;;;;;;;;5092900;28;829;-70
2022/12/25 12:19:12;;;;;;;;;;;;;;;;;;5092623;28;896;-70
2022/12/25 12:21:38;;;;;;;;;;;;;;;;;;5092348;28;891;-70
2022/12/25 12:24:17;;;;;;;;;;;;;;;;;;5092611;28;1023;-70
2022/12/25 12:26:44;;;;;;;;;;;;;;;;;;5092402;28;1914;-70
2022/12/25 12:29:24;;;;;;;;;;;;;;;;;;5093371;28;884;-70
2022/12/25 12:31:51;;;;;;;;;;;;;;;;;;5090818;28;773;-70
2022/12/25 12:34:36;;;;;;;;;;;;;;;;;;5091026;28;919;-70
2022/12/25 12:37:21;;;;;;;;;;;;;;;;;;5091525;28;1087;-70
2022/12/25 12:39:50;;;;;;;;;;;;;;;;;;5084020;28;1185;-71
2022/12/25 12:42:21;;;;;;;;;;;;;;;;;;5091764;28;852;-72
2022/12/25 12:44:48;;;;;;;;;;;;;;;;;;5091394;28;955;-72
2022/12/25 12:47:32;;;;;;;;;;;;;;;;;;5092382;28;1894;-72
2022/12/25 12:49:58;;;;;;;;;;;;;;;;;;5092056;28;860;-72
2022/12/25 12:52:25;;;;;;;;;;;;;;;;;;5092763;28;883;-72
2022/12/25 12:55:01;;;;;;;;;;;;;;;;;;5092323;28;1058;-72
2022/12/25 12:57:28;;;;;;;;;;;;;;;;;;5092963;28;821;-70
2022/12/25 12:59:55;;;;;;;;;;;;;;;;;;5091829;28;909;-69
2022/12/25 13:02:30;;;;;;;;;;;;;;;;;;5090569;28;896;-69
2022/12/25 13:05:04;;;;;;;;;;;;;;;;;;5090182;28;894;-69
2022/12/25 13:07:52;;;;;;;;;;;;;;;;;;5091874;28;1897;-71
2022/12/25 13:10:28;;;;;;;;;;;;;;;;;;5091607;28;833;-71
2022/12/25 13:12:56;;;;;;;;;;;;;;;;;;5090831;28;876;-71
2022/12/25 13:15:23;;;;;;;;;;;;;;;;;;5090346;28;1226;-71
2022/12/25 13:17:49;;;;;;;;;;;;;;;;;;5089213;28;868;-71
2022/12/25 13:20:21;;;;;;;;;;;;;;;;;;5091020;28;860;-71
2022/12/25 13:22:46;;;;;;;;;;;;;;;;;;5091161;28;1003;-71
2022/12/25 13:25:19;;;;;;;;;;;;;;;;;;5090995;28;900;-71
2022/12/25 13:27:44;;;;;;;;;;;;;;;;;;5090762;28;1976;-71
2022/12/25 13:30:13;;;;;;;;;;;;;;;;;;5091413;28;825;-71
2022/12/25 13:32:40;;;;;;;;;;;;;;;;;;5090559;28;1113;-73
2022/12/25 13:35:11;;;;;;;;;;;;;;;;;;5090730;28;837;-73
2022/12/25 13:37:36;;;;;;;;;;;;;;;;;;5089590;28;1234;-73
2022/12/25 13:40:07;;;;;;;;;;;;;;;;;;5090527;28;1002;-73
2022/12/25 13:42:35;;;;;;;;;;;;;;;;;;5090282;28;1295;-73
2022/12/25 13:45:05;;;;;;;;;;;;;;;;;;5089782;28;1383;-73
2022/12/25 13:47:33;;;;;;;;;;;;;;;;;;5090240;28;1898;-73
2022/12/25 13:50:00;;;;;;;;;;;;;;;;;;5090108;28;923;-73
2022/12/25 13:52:35;;;;;;;;;;;;;;;;;;5090382;28;829;-73
2022/12/25 13:55:02;;;;;;;;;;;;;;;;;;5090341;28;1201;-73
2022/12/25 13:57:30;;;;;;;;;;;;;;;;;;5090312;28;829;-73
2022/12/25 13:59:56;;;;;;;;;;;;;;;;;;5090191;28;927;-73
2022/12/25 14:02:24;;;;;;;;;;;;;;;;;;5090749;28;853;-71
2022/12/25 14:04:49;;;;;;;;;;;;;;;;;;5090117;28;900;-70
2022/12/25 14:07:17;;;;;;;;;;;;;;;;;;5090548;28;1971;-70
2022/12/25 14:09:42;;;;;;;;;;;;;;;;;;5090121;28;1068;-71
2022/12/25 14:12:08;;;;;;;;;;;;;;;;;;5089705;28;836;-70
2022/12/25 14:14:35;;;;;;;;;;;;;;;;;;5089253;28;1151;-71
2022/12/25 14:17:00;;;;;;;;;;;;;;;;;;5090821;28;997;-69
2022/12/25 14:19:30;;;;;;;;;;;;;;;;;;5091185;28;962;-69
2022/12/25 14:22:04;;;;;;;;;;;;;;;;;;5089766;28;951;-70
2022/12/25 14:24:30;;;;;;;;;;;;;;;;;;5090957;28;999;-70
2022/12/25 14:26:56;;;;;;;;;;;;;;;;;;5089753;28;1909;-70
2022/12/25 14:29:22;;;;;;;;;;;;;;;;;;5090144;28;753;-70
2022/12/25 14:31:47;;;;;;;;;;;;;;;;;;5088362;28;924;-70
2022/12/25 14:34:18;;;;;;;;;;;;;;;;;;5088619;28;924;-69
2022/12/25 14:36:44;;;;;;;;;;;;;;;;;;5089616;28;836;-70
2022/12/25 14:39:25;;;;;;;;;;;;;;;;;;5090038;28;1123;-70
2022/12/25 14:41:51;;;;;;;;;;;;;;;;;;5089399;28;782;-69
2022/12/25 14:44:33;;;;;;;;;;;;;;;;;;5088035;28;1131;-70
2022/12/25 14:47:02;;;;;;;;;;;;;;;;;;5089373;28;1905;-72
2022/12/25 14:49:30;;;;;;;;;;;;;;;;;;5089545;28;860;-72
2022/12/25 14:51:55;;;;;;;;;;;;;;;;;;5089405;28;991;-72
2022/12/25 14:54:21;;;;;;;;;;;;;;;;;;5090272;28;844;-72
2022/12/25 14:56:47;;;;;;;;;;;;;;;;;;5094105;28;1020;-72
2022/12/25 14:59:16;;;;;;;;;;;;;;;;;;5094963;28;942;-71
2022/12/25 15:01:42;;;;;;;;;;;;;;;;;;5094566;28;1401;-72
2022/12/25 15:04:07;;;;;;;;;;;;;;;;;;5096634;28;1021;-72
2022/12/25 15:06:32;;;;;;;;;;;;;;;;;;5095996;28;1902;-72
2022/12/25 15:08:59;;;;;;;;;;;;;;;;;;5095510;28;1029;-71
2022/12/25 15:11:24;;;;;;;;;;;;;;;;;;5095974;28;898;-72
2022/12/25 15:13:50;;;;;;;;;;;;;;;;;;5095592;28;837;-72
2022/12/25 15:16:18;;;;;;;;;;;;;;;;;;5096360;28;844;-72
2022/12/25 15:18:44;;;;;;;;;;;;;;;;;;5095958;28;987;-70
2022/12/25 15:21:25;;;;;;;;;;;;;;;;;;5095197;28;1344;-70
2022/12/25 15:23:51;;;;;;;;;;;;;;;;;;5095810;28;936;-70
2022/12/25 15:26:16;;;;;;;;;;;;;;;;;;5096159;28;1973;-71
2022/12/25 15:28:41;;;;;;;;;;;;;;;;;;5094189;28;872;-70
2022/12/25 15:31:39;;;;;;;;;;;;;;;;;;5096570;28;860;-70
2022/12/25 15:34:06;;;;;;;;;;;;;;;;;;5061070;28;1390;-69
2022/12/25 15:36:31;;;;;;;;;;;;;;;;;;5096016;28;817;-70
2022/12/25 15:38:56;;;;;;;;;;;;;;;;;;5093938;28;1866;-69
2022/12/25 15:44:18;;;;;;;;;;;;;;;;;;5094270;28;679;-69
2022/12/25 15:46:44;;;;;;;;;;;;;;;;;;5094389;28;1894;-70
2022/12/25 15:49:09;;;;;;;;;;;;;;;;;;5094808;28;928;-69
2022/12/25 15:51:35;;;;;;;;;;;;;;;;;;5094656;28;1166;-69
2022/12/25 15:54:00;;;;;;;;;;;;;;;;;;5094901;28;859;-70
2022/12/25 15:56:26;;;;;;;;;;;;;;;;;;5097375;28;824;-70
2022/12/25 15:58:51;;;;;;;;;;;;;;;;;;5097321;28;828;-69
2022/12/25 16:01:18;;;;;;;;;;;;;;;;;;5097445;28;840;-70
2022/12/25 16:03:43;;;;;;;;;;;;;;;;;;5095341;28;785;-69
2022/12/25 16:06:13;;;;;;;;;;;;;;;;;;5095728;28;1910;-70
2022/12/25 16:08:39;;;;;;;;;;;;;;;;;;5093211;28;1199;-69
2022/12/25 16:11:06;;;;;;;;;;;;;;;;;;5091461;28;1106;-70
2022/12/25 16:13:32;;;;;;;;;;;;;;;;;;5091739;28;832;-69
2022/12/25 16:15:57;;;;;;;;;;;;;;;;;;5091113;28;746;-69
2022/12/25 16:18:23;;;;;;;;;;;;;;;;;;5102886;28;1123;-69
2022/12/25 16:20:49;;;;;;;;;;;;;;;;;;5111323;28;1189;-70
2022/12/25 16:23:15;;;;;;;;;;;;;;;;;;5112171;28;875;-70
2022/12/25 16:25:40;;;;;;;;;;;;;;;;;;5112381;28;860;-70
2022/12/25 16:28:08;;;;;;;;;;;;;;;;;;5111141;28;1913;-70
2022/12/25 16:30:33;;;;;;;;;;;;;;;;;;5111356;28;860;-70
2022/12/25 16:32:59;;;;;;;;;;;;;;;;;;5111501;28;852;-70
2022/12/25 16:35:24;;;;;;;;;;;;;;;;;;5111619;28;1166;-70
2022/12/25 16:37:49;;;;;;;;;;;;;;;;;;5111046;28;1317;-70
2022/12/25 16:40:15;;;;;;;;;;;;;;;;;;5111311;28;1324;-69
2022/12/25 16:42:41;;;;;;;;;;;;;;;;;;5112074;28;800;-70
2022/12/25 16:45:07;;;;;;;;;;;;;;;;;;5112189;28;1007;-69
2022/12/25 16:47:32;;;;;;;;;;;;;;;;;;5112011;28;1893;-70
2022/12/25 16:49:58;;;;;;;;;;;;;;;;;;5111547;28;1010;-70
2022/12/25 16:52:23;;;;;;;;;;;;;;;;;;5112733;28;769;-70
2022/12/25 16:54:48;;;;;;;;;;;;;;;;;;5111718;28;813;-70
2022/12/25 16:57:13;;;;;;;;;;;;;;;;;;5111057;28;1139;-70
2022/12/25 16:59:39;;;;;;;;;;;;;;;;;;5113531;28;764;-70
2022/12/25 17:02:04;;;;;;;;;;;;;;;;;;5112308;28;820;-70
2022/12/25 17:04:29;;;;;;;;;;;;;;;;;;5110914;28;1222;-70
2022/12/25 17:06:55;;;;;;;;;;;;;;;;;;5111606;28;1985;-70
2022/12/25 17:09:20;;;;;;;;;;;;;;;;;;5112220;28;1198;-70
2022/12/25 17:11:46;;;;;;;;;;;;;;;;;;5111694;28;868;-70
2022/12/25 17:14:11;;;;;;;;;;;;;;;;;;5112838;28;832;-70
2022/12/25 17:16:37;;;;;;;;;;;;;;;;;;5112787;28;804;-70
2022/12/25 17:19:04;;;;;;;;;;;;;;;;;;5111357;28;1293;-69
2022/12/25 17:21:31;;;;;;;;;;;;;;;;;;5113418;28;800;-70
2022/12/25 17:23:56;;;;;;;;;;;;;;;;;;5112635;28;908;-70
2022/12/25 17:26:23;;;;;;;;;;;;;;;;;;5112923;28;1960;-69
2022/12/25 17:28:48;;;;;;;;;;;;;;;;;;5111613;28;816;-70
2022/12/25 17:31:13;;;;;;;;;;;;;;;;;;5110742;28;1601;-70
2022/12/25 17:33:39;;;;;;;;;;;;;;;;;;5112436;28;851;-70
2022/12/25 17:36:05;;;;;;;;;;;;;;;;;;5111793;28;825;-70
2022/12/25 17:38:31;;;;;;;;;;;;;;;;;;5111976;28;993;-70
2022/12/25 17:40:57;;;;;;;;;;;;;;;;;;5111255;28;875;-70
2022/12/25 17:43:23;;;;;;;;;;;;;;;;;;5110231;28;1217;-70
2022/12/25 17:45:48;;;;;;;;;;;;;;;;;;5110482;28;924;-70
2022/12/25 17:48:14;;;;;;;;;;;;;;;;;;5111055;28;1898;-70
2022/12/25 17:50:39;;;;;;;;;;;;;;;;;;5111262;28;904;-70
2022/12/25 17:53:05;;;;;;;;;;;;;;;;;;5111092;28;793;-70
2022/12/25 17:55:33;;;;;;;;;;;;;;;;;;5111443;28;797;-70
2022/12/25 17:57:58;;;;;;;;;;;;;;;;;;5110543;28;917;-70
2022/12/25 18:00:24;;;;;;;;;;;;;;;;;;5111228;28;828;-70
2022/12/25 18:02:49;;;;;;;;;;;;;;;;;;5110664;28;836;-70
2022/12/25 18:05:14;;;;;;;;;;;;;;;;;;5111261;28;911;-69
2022/12/25 18:07:39;;;;;;;;;;;;;;;;;;5110838;28;1968;-70
2022/12/25 18:10:05;;;;;;;;;;;;;;;;;;5109267;28;1234;-70
2022/12/25 18:12:30;;;;;;;;;;;;;;;;;;5110904;28;761;-70
2022/12/25 18:14:56;;;;;;;;;;;;;;;;;;5108617;28;1468;-70
2022/12/25 18:17:21;;;;;;;;;;;;;;;;;;5109200;28;816;-70
2022/12/25 18:19:48;;;;;;;;;;;;;;;;;;5110811;28;867;-72
2022/12/25 18:22:14;;;;;;;;;;;;;;;;;;5110604;28;891;-72
2022/12/25 18:48:27;;;;;;;;;;;;;;;;;;5085476;22;1760;-70
2022/12/25 18:50:54;;;;;;;;;;;;;;;;;;5073030;28;1266;-69
2022/12/25 18:53:20;;;;;;;;;;;;;;;;;;5072760;28;897;-70
2022/12/25 18:55:45;;;;;;;;;;;;;;;;;;5038157;28;1319;-70
2022/12/25 18:58:10;;;;;;;;;;;;;;;;;;5073603;28;895;-70
2022/12/25 19:00:36;;;;;;;;;;;;;;;;;;5038396;28;1329;-70
2022/12/25 19:03:01;;;;;;;;;;;;;;;;;;5055221;28;1275;-70
2022/12/25 19:05:26;;;;;;;;;;;;;;;;;;5055042;28;884;-70
2022/12/25 19:07:51;;;;;;;;;;;;;;;;;;5073000;28;1894;-70
2022/12/25 19:10:17;;;;;;;;;;;;;;;;;;5072756;28;836;-70
2022/12/25 19:12:42;;;;;;;;;;;;;;;;;;5055024;28;1515;-70
2022/12/25 19:15:08;;;;;;;;;;;;;;;;;;5072924;28;896;-70
2022/12/25 19:17:33;;;;;;;;;;;;;;;;;;5054526;28;1155;-69
2022/12/25 19:19:58;;;;;;;;;;;;;;;;;;5054634;28;1243;-69
2022/12/25 19:22:23;;;;;;;;;;;;;;;;;;5037622;28;1181;-69